Richmond, MN (56368)

4:34 AM CDT on August 30, 2014 (GMT -0500)
Century Estates | Change Station
CLOSE
Current Station
Personal Weather Station
Location: Cold Spring, MN
Elevation: 1165 ft
Nearby Weather Stations

Elev 1165 ft 45.44 °N, 94.43 °W | Updated 4 minutes ago

Overcast
Overcast
65.5 °F
Feels Like 65.5 °F
N
0.0
Wind Variable Wind from North
Gusts 0.0 mph

Today
High -- | Low -- °F
--% Chance of Precip.
Yesterday
High -- | Low -- °F
Precip. -- in
6:37 AM 7:59 PM
Waxing Crescent, 20% visible
Pressure 29.82 in
Visibility 7.0 miles
Clouds Scattered Clouds 1700 ft
Mostly Cloudy 3400 ft
Overcast 6000 ft
Dew Point 65 °F
Humidity 99%
Rainfall 0.01 in
Snow Depth Not available.
UV 0 out of 12
Pollen 3.30 out of 12
Air Quality Not available.
Flu Activity Not available.
METAR KPEX 300913Z AUTO 25004KT 7SM RA SCT017 BKN034 OVC060 17/17 A2982 RMK AO2 T01700170

More Conditions Fewer Conditions

Pressure 29.82 in
Visibility 7.0 miles
Clouds Scattered Clouds 1700 ft
Mostly Cloudy 3400 ft
Overcast 6000 ft
Dew Point 65 °F
Humidity 99%
Rainfall 0.01 in
Snow Depth Not available.
UV 0 out of 12
Pollen 3.30 out of 12
Air Quality Not available.
Flu Activity Not available.
METAR KPEX 300913Z AUTO 25004KT 7SM RA SCT017 BKN034 OVC060 17/17 A2982 RMK AO2 T01700170

More Conditions Fewer Conditions

10-Day Weather Forecast

Almanac

Astronomy

Aug. 30, 2014 Rise Set
Actual Time 6:37 AM CDT 7:59 PM CDT
Civil Twilight 6:06 AM CDT 8:29 PM CDT
Nautical Twilight 5:29 AM CDT 9:06 PM CDT
Astronomical Twilight 4:49 AM CDT 9:46 PM CDT
Moon 11:41 AM CDT 10:17 PM CDT
Length of Visible Light 14h 23m
Length of Day
13h 22m
Tomorrow will be 3m 3s shorter.
Waxing Crescent, 20% of the Moon is Illuminated
Today
Waxing Crescent
Sep 2
First Quarter
Sep 8
Full
Sep 15
Last Quarter
Sep 24
New

Today's Extremes

State Highs State Lows

Community

WunderPhotos

Upload Photos

1,748,475 photos uploaded!

Nearby

Snow Depth

Station Depth Elevation
No new snow has been reported.

Earthquake Activity

City Distance Mag. Time & Date
No recent earthquake activity has been reported nearby.
Minimum magnitude displayed is 2.5.

Coastal Water Temperatures

Place Temperature
No Stations Reporting

Nearby Weather Stations